createdAt,value
2023-04-16T00:01:58.415Z,3.17
2023-04-16T00:04:25.562Z,3.10
2023-04-16T00:06:52.592Z,3.00
2023-04-16T00:09:19.516Z,3.05
2023-04-16T00:11:46.286Z,2.80
2023-04-16T00:14:13.139Z,3.08
2023-04-16T00:16:40.219Z,2.80
2023-04-16T00:19:07.459Z,2.70
2023-04-16T00:21:34.625Z,2.72
2023-04-16T00:24:01.332Z,2.60
2023-04-16T00:26:28.291Z,2.30
2023-04-16T00:28:55.409Z,2.20
2023-04-16T00:31:29.846Z,2.42
2023-04-16T00:33:57.034Z,2.40
2023-04-16T00:36:25.235Z,2.65
2023-04-16T00:38:52.191Z,2.60
2023-04-16T00:41:19.237Z,2.80
2023-04-16T00:43:46.328Z,3.20
2023-04-16T00:46:13.311Z,2.88
2023-04-16T00:48:41.335Z,2.80
2023-04-16T00:51:09.178Z,2.70
2023-04-16T00:53:36.380Z,2.87
2023-04-16T00:56:04.845Z,2.97
2023-04-16T00:58:33.329Z,2.80
2023-04-16T01:01:00.692Z,2.65
2023-04-16T01:03:38.646Z,2.55
2023-04-16T01:06:06.802Z,2.80
2023-04-16T01:08:33.690Z,2.72
2023-04-16T01:11:00.498Z,3.10
2023-04-16T01:13:27.581Z,2.90
2023-04-16T01:15:54.710Z,3.00
2023-04-16T01:18:23.213Z,3.07
2023-04-16T01:20:51.277Z,3.40
2023-04-16T01:23:18.940Z,3.58
2023-04-16T01:25:46.674Z,3.70
2023-04-16T01:28:13.692Z,3.53
2023-04-16T01:30:40.723Z,3.77
2023-04-16T01:33:39.693Z,3.80
2023-04-16T01:36:07.764Z,3.72
2023-04-16T01:38:34.663Z,3.85
2023-04-16T01:41:01.969Z,3.78
2023-04-16T01:43:29.089Z,3.97
2023-04-16T01:46:18.047Z,4.10
2023-04-16T01:48:45.243Z,3.88
2023-04-16T01:51:12.261Z,4.50
2023-04-16T01:53:39.136Z,4.47
2023-04-16T01:56:06.794Z,4.90
2023-04-16T01:58:34.311Z,4.68
2023-04-16T02:01:01.581Z,5.03
2023-04-16T02:03:28.794Z,4.57
2023-04-16T02:05:55.946Z,4.70
2023-04-16T02:08:23.327Z,4.70
2023-04-16T02:10:50.776Z,5.07
2023-04-16T02:13:17.582Z,4.53
2023-04-16T02:15:48.241Z,4.90
2023-04-16T02:18:18.156Z,5.03
2023-04-16T02:20:47.327Z,4.87
2023-04-16T02:23:17.443Z,4.60
2023-04-16T02:25:46.565Z,4.55
2023-04-16T02:28:15.980Z,4.50
2023-04-16T02:30:44.593Z,4.47
2023-04-16T02:33:13.209Z,4.73
2023-04-16T02:35:49.237Z,4.82
2023-04-16T02:38:16.075Z,4.50
2023-04-16T02:40:43.819Z,4.97
2023-04-16T02:43:11.130Z,4.93
2023-04-16T02:45:37.966Z,4.60
2023-04-16T02:48:07.299Z,5.30
2023-04-16T02:50:34.116Z,5.35
2023-04-16T02:53:00.980Z,4.82
2023-04-16T02:55:29.410Z,4.93
2023-04-16T02:57:56.325Z,5.27
2023-04-16T03:00:23.163Z,5.13
2023-04-16T03:02:50.117Z,5.10
2023-04-16T03:05:17.212Z,5.30
2023-04-16T03:07:44.098Z,4.75
2023-04-16T03:10:11.991Z,4.87
2023-04-16T03:12:39.209Z,5.00
2023-04-16T03:15:07.369Z,5.20
2023-04-16T03:17:34.280Z,4.97
2023-04-16T03:20:01.624Z,5.13
2023-04-16T03:22:28.661Z,5.03
2023-04-16T03:24:55.620Z,5.00
2023-04-16T03:27:22.469Z,5.28
2023-04-16T03:29:49.411Z,5.70
2023-04-16T03:32:17.317Z,5.70
2023-04-16T03:34:44.442Z,5.93
2023-04-16T03:37:12.092Z,5.75
2023-04-16T03:39:39.290Z,5.93
2023-04-16T03:42:06.233Z,5.90
2023-04-16T03:44:34.470Z,6.13
2023-04-16T03:47:02.009Z,6.30
2023-04-16T03:49:29.020Z,6.15
2023-04-16T03:51:56.773Z,6.85
2023-04-16T03:54:25.598Z,7.18
2023-04-16T03:57:02.406Z,7.43
2023-04-16T03:59:29.480Z,6.80
2023-04-16T04:01:56.483Z,7.20
2023-04-16T04:04:23.467Z,7.80
2023-04-16T04:06:50.430Z,8.07
2023-04-16T04:09:17.777Z,7.90
2023-04-16T04:11:44.499Z,8.77
2023-04-16T04:14:11.243Z,7.65
2023-04-16T04:16:38.137Z,8.27
2023-04-16T04:19:05.102Z,7.55
2023-04-16T04:21:31.961Z,7.57
2023-04-16T04:23:58.829Z,8.33
2023-04-16T04:26:25.820Z,7.03
2023-04-16T04:28:52.626Z,7.45
2023-04-16T04:31:19.510Z,7.15
2023-04-16T04:33:46.439Z,7.45
2023-04-16T04:36:13.408Z,7.57
2023-04-16T04:38:40.704Z,8.02
2023-04-16T04:41:07.802Z,7.45
2023-04-16T04:43:37.042Z,7.72
2023-04-16T04:46:04.062Z,8.48
2023-04-16T04:48:31.915Z,7.90
2023-04-16T04:50:58.957Z,8.07
2023-04-16T04:53:25.927Z,7.97
2023-04-16T04:55:55.603Z,7.75
2023-04-16T04:58:25.627Z,7.70
2023-04-16T05:00:52.628Z,7.83
2023-04-16T05:03:21.502Z,8.15
2023-04-16T05:05:48.573Z,8.05
2023-04-16T05:08:15.604Z,8.05
2023-04-16T05:10:42.394Z,8.43
2023-04-16T05:13:09.246Z,9.70
2023-04-16T05:15:36.026Z,9.60
2023-04-16T05:18:02.937Z,10.60
2023-04-16T05:20:29.852Z,9.43
2023-04-16T05:22:56.655Z,9.73
2023-04-16T05:25:23.594Z,10.07
2023-04-16T05:27:50.402Z,10.82
2023-04-16T05:30:17.131Z,11.73
2023-04-16T05:32:43.924Z,12.60
2023-04-16T05:35:11.090Z,11.10
2023-04-16T05:37:37.983Z,10.80
2023-04-16T05:40:05.240Z,11.52
2023-04-16T05:42:32.269Z,11.40
2023-04-16T05:44:59.113Z,10.68
2023-04-16T05:47:25.960Z,10.07
2023-04-16T05:49:52.845Z,9.57
2023-04-16T05:52:19.745Z,10.50
2023-04-16T05:54:46.552Z,9.00
2023-04-16T05:57:14.132Z,9.23
2023-04-16T05:59:41.075Z,9.25
2023-04-16T06:02:08.069Z,8.97
2023-04-16T06:04:35.889Z,9.13
2023-04-16T06:07:02.762Z,9.05
2023-04-16T06:09:30.567Z,9.15
2023-04-16T06:11:57.951Z,9.23
2023-04-16T06:14:24.818Z,9.07
2023-04-16T06:16:51.594Z,9.50
2023-04-16T06:19:18.387Z,9.52
2023-04-16T06:21:45.500Z,10.25
2023-04-16T06:24:13.286Z,9.48
2023-04-16T06:26:40.427Z,9.47
2023-04-16T06:29:07.506Z,10.18
2023-04-16T06:31:34.700Z,9.18
2023-04-16T06:34:01.641Z,9.63
2023-04-16T06:36:29.155Z,9.60
2023-04-16T06:38:56.168Z,9.50
2023-04-16T06:41:25.432Z,9.77
2023-04-16T06:43:52.421Z,9.32
2023-04-16T06:46:19.277Z,9.70
2023-04-16T06:48:46.084Z,8.80
2023-04-16T06:51:13.360Z,9.30
2023-04-16T06:53:40.347Z,9.25
2023-04-16T06:56:07.419Z,9.60
2023-04-16T06:58:34.250Z,8.88
2023-04-16T07:01:02.708Z,8.75
2023-04-16T07:03:29.743Z,8.53
2023-04-16T07:05:56.871Z,8.82
2023-04-16T07:08:24.460Z,8.73
2023-04-16T07:10:52.742Z,8.93
2023-04-16T07:13:20.446Z,9.10
2023-04-16T07:15:47.708Z,8.67
2023-04-16T07:18:14.532Z,9.05
2023-04-16T07:20:41.524Z,9.05
2023-04-16T07:23:08.317Z,9.25
2023-04-16T07:25:35.198Z,8.73
2023-04-16T07:28:03.731Z,8.63
2023-04-16T07:30:34.221Z,8.60
2023-04-16T07:33:04.538Z,8.60
2023-04-16T07:35:32.302Z,9.00
2023-04-16T07:37:59.218Z,8.90
2023-04-16T07:40:26.611Z,8.90
2023-04-16T07:42:54.413Z,8.82
2023-04-16T07:45:21.176Z,8.88
2023-04-16T07:47:48.013Z,9.10
2023-04-16T07:50:16.341Z,8.35
2023-04-16T07:52:45.283Z,8.50
2023-04-16T07:55:12.107Z,8.60
2023-04-16T07:57:38.934Z,8.88
2023-04-16T08:00:06.946Z,8.63
2023-04-16T08:02:43.790Z,8.10
2023-04-16T08:05:12.490Z,7.97
2023-04-16T08:07:39.334Z,9.10
2023-04-16T08:10:06.636Z,8.13
2023-04-16T08:12:33.574Z,8.55
2023-04-16T08:15:00.403Z,7.68
2023-04-16T08:17:28.769Z,7.97
2023-04-16T08:19:55.649Z,7.82
2023-04-16T08:22:22.577Z,8.40
2023-04-16T08:24:49.470Z,8.38
2023-04-16T08:27:19.739Z,8.45
2023-04-16T08:29:48.012Z,8.70
2023-04-16T08:32:14.998Z,8.80
2023-04-16T08:34:42.142Z,8.57
2023-04-16T08:37:09.427Z,8.77
2023-04-16T08:39:36.490Z,8.55
2023-04-16T08:42:06.023Z,8.23
2023-04-16T08:44:35.205Z,8.10
2023-04-16T08:47:02.845Z,7.70
2023-04-16T08:49:30.026Z,7.93
2023-04-16T08:51:57.544Z,8.00
2023-04-16T08:55:00.160Z,7.40
2023-04-16T08:57:35.624Z,7.55
2023-04-16T09:00:03.181Z,7.35
2023-04-16T09:02:31.557Z,7.22
2023-04-16T09:05:00.664Z,7.35
2023-04-16T09:07:29.579Z,7.13
2023-04-16T09:09:59.462Z,7.20
2023-04-16T09:12:26.474Z,7.97
2023-04-16T09:14:53.440Z,7.43
2023-04-16T09:17:20.384Z,7.90
2023-04-16T09:19:47.404Z,8.27
2023-04-16T09:22:14.384Z,7.40
2023-04-16T09:24:41.978Z,7.68
2023-04-16T09:27:09.170Z,8.10
2023-04-16T09:29:37.769Z,7.22
2023-04-16T09:32:09.281Z,7.00
2023-04-16T09:35:00.577Z,7.55
2023-04-16T09:37:31.287Z,7.63
2023-04-16T09:40:04.058Z,7.25
2023-04-16T09:42:36.462Z,6.88
2023-04-16T09:45:05.696Z,6.80
2023-04-16T09:47:41.521Z,7.13
2023-04-16T09:50:11.923Z,7.05
2023-04-16T09:52:39.389Z,6.07
2023-04-16T09:55:06.653Z,6.43
2023-04-16T09:57:33.527Z,6.97
2023-04-16T10:00:05.946Z,6.40
2023-04-16T10:02:34.622Z,7.25
2023-04-16T10:05:03.296Z,7.20
2023-04-16T10:07:36.006Z,7.05
2023-04-16T10:10:04.360Z,6.80
2023-04-16T10:12:32.860Z,7.25
2023-04-16T10:14:59.804Z,7.10
2023-04-16T10:17:29.906Z,7.55
2023-04-16T10:19:58.106Z,6.70
2023-04-16T10:22:25.835Z,6.80
2023-04-16T10:24:53.201Z,6.75
2023-04-16T10:27:21.177Z,6.45
2023-04-16T10:29:49.264Z,6.43
2023-04-16T10:32:17.913Z,6.28
2023-04-16T10:34:45.117Z,6.57
2023-04-16T10:37:12.539Z,6.68
2023-04-16T10:39:39.363Z,6.80
2023-04-16T10:42:10.565Z,7.40
2023-04-16T10:44:37.990Z,7.57
2023-04-16T10:47:12.292Z,7.70
2023-04-16T10:49:39.782Z,7.47
2023-04-16T10:52:19.138Z,7.53
2023-04-16T10:54:50.261Z,8.23
2023-04-16T10:57:19.639Z,7.63
2023-04-16T10:59:49.301Z,8.20
2023-04-16T11:02:19.970Z,8.98
2023-04-16T11:04:48.983Z,8.25
2023-04-16T11:07:19.539Z,8.48
2023-04-16T11:09:59.770Z,8.68
2023-04-16T11:12:37.709Z,8.47
2023-04-16T11:15:09.450Z,8.23
2023-04-16T11:17:52.773Z,8.27
2023-04-16T11:20:21.795Z,8.68
2023-04-16T11:22:58.257Z,8.20
2023-04-16T11:25:31.890Z,8.20
2023-04-16T11:28:01.532Z,7.82
2023-04-16T11:30:36.280Z,8.23
2023-04-16T11:33:04.166Z,8.15
2023-04-16T11:35:31.511Z,8.48
2023-04-16T11:37:58.779Z,8.80
2023-04-16T11:40:29.120Z,8.38
2023-04-16T11:42:56.883Z,8.43
2023-04-16T11:45:24.815Z,8.48
2023-04-16T11:47:55.449Z,8.70
2023-04-16T11:50:27.659Z,8.60
2023-04-16T11:53:04.824Z,8.65
2023-04-16T11:55:31.608Z,8.30
2023-04-16T11:58:10.999Z,8.82
2023-04-16T12:00:37.891Z,9.32
2023-04-16T12:03:04.846Z,8.57
2023-04-16T12:05:39.383Z,8.95
2023-04-16T12:08:07.945Z,9.63
2023-04-16T12:10:37.287Z,9.20
2023-04-16T12:13:11.462Z,9.27
2023-04-16T12:16:16.604Z,8.67
2023-04-16T12:19:01.301Z,9.38
2023-04-16T12:22:00.758Z,9.00
2023-04-16T12:24:27.689Z,9.15
2023-04-16T12:27:03.141Z,8.85
2023-04-16T12:29:30.044Z,8.83
2023-04-16T12:31:56.914Z,9.18
2023-04-16T12:34:25.547Z,9.82
2023-04-16T12:37:10.938Z,9.63
2023-04-16T12:39:37.744Z,8.73
2023-04-16T12:42:06.417Z,9.47
2023-04-16T12:44:33.255Z,10.20
2023-04-16T12:47:00.118Z,8.88
2023-04-16T12:49:26.911Z,8.90
2023-04-16T12:51:53.769Z,9.82
2023-04-16T12:54:20.558Z,9.10
2023-04-16T12:56:47.293Z,9.30
2023-04-16T12:59:14.266Z,9.65
2023-04-16T13:01:41.080Z,9.23
2023-04-16T13:04:08.092Z,9.88
2023-04-16T13:06:36.804Z,9.70
2023-04-16T13:09:04.856Z,9.18
2023-04-16T13:11:32.640Z,10.13
2023-04-16T13:13:59.514Z,9.80
2023-04-16T13:16:26.551Z,9.70
2023-04-16T13:18:53.375Z,9.93
2023-04-16T13:21:20.183Z,10.02
2023-04-16T13:23:47.091Z,9.95
2023-04-16T13:26:15.835Z,9.20
2023-04-16T13:28:42.664Z,9.13
2023-04-16T13:31:09.477Z,8.90
2023-04-16T13:33:36.567Z,9.27
2023-04-16T13:36:03.502Z,9.48
2023-04-16T13:38:30.254Z,8.98
2023-04-16T13:40:57.043Z,9.52
2023-04-16T13:43:24.157Z,9.53
2023-04-16T13:45:51.838Z,9.60
2023-04-16T13:48:18.762Z,9.95
2023-04-16T13:50:45.804Z,9.38
2023-04-16T13:53:12.661Z,10.18
2023-04-16T13:55:39.454Z,10.33
2023-04-16T13:58:07.234Z,9.90
2023-04-16T14:00:34.260Z,10.50
2023-04-16T14:03:01.294Z,10.80
2023-04-16T14:05:28.213Z,10.25
2023-04-16T14:07:54.949Z,9.90
2023-04-16T14:10:21.716Z,10.27
2023-04-16T14:12:48.528Z,9.43
2023-04-16T14:15:15.478Z,10.02
2023-04-16T14:17:44.143Z,9.60
2023-04-16T14:20:14.129Z,9.57
2023-04-16T14:22:42.536Z,9.93
2023-04-16T14:25:09.404Z,10.10
2023-04-16T14:27:36.441Z,9.85
2023-04-16T14:30:03.694Z,10.57
2023-04-16T14:32:30.716Z,10.47
2023-04-16T14:34:57.732Z,10.57
2023-04-16T14:37:24.616Z,9.98
2023-04-16T14:39:51.404Z,10.13
2023-04-16T14:42:18.342Z,10.05
2023-04-16T14:44:45.202Z,11.07
2023-04-16T14:47:12.050Z,10.85
2023-04-16T14:49:38.931Z,10.40
2023-04-16T14:52:06.985Z,10.23
2023-04-16T14:54:34.194Z,11.02
2023-04-16T14:57:02.053Z,10.77
2023-04-16T14:59:28.903Z,11.48
2023-04-16T15:01:57.036Z,10.25
2023-04-16T15:04:24.720Z,11.00
2023-04-16T15:06:51.703Z,10.70
2023-04-16T15:09:18.548Z,10.40
2023-04-16T15:11:45.760Z,10.88
2023-04-16T15:14:12.834Z,10.45
2023-04-16T15:16:40.013Z,10.52
2023-04-16T15:19:07.011Z,10.13
2023-04-16T15:21:33.802Z,10.77
2023-04-16T15:24:00.606Z,10.57
2023-04-16T15:26:27.655Z,10.35
2023-04-16T15:28:54.407Z,10.15
2023-04-16T15:31:21.887Z,10.30
2023-04-16T15:33:49.260Z,9.90
2023-04-16T15:36:16.453Z,10.60
2023-04-16T15:38:43.394Z,11.00
2023-04-16T15:41:10.954Z,10.77
2023-04-16T15:43:38.370Z,10.93
2023-04-16T15:46:05.444Z,10.53
2023-04-16T15:48:32.332Z,11.35
2023-04-16T15:50:59.098Z,10.40
2023-04-16T15:53:26.189Z,10.93
2023-04-16T15:55:53.817Z,10.30
2023-04-16T15:58:23.746Z,11.10
2023-04-16T16:00:50.851Z,11.48
2023-04-16T16:03:18.689Z,10.40
2023-04-16T16:05:47.989Z,10.43
2023-04-16T16:08:15.808Z,10.93
2023-04-16T16:10:43.081Z,10.23
2023-04-16T16:13:13.174Z,11.43
2023-04-16T16:15:43.202Z,11.07
2023-04-16T16:18:10.146Z,11.15
2023-04-16T16:20:37.186Z,11.27
2023-04-16T16:23:04.126Z,11.07
2023-04-16T16:25:31.058Z,10.45
2023-04-16T16:27:58.866Z,10.98
2023-04-16T16:30:26.394Z,11.02
2023-04-16T16:32:54.027Z,11.15
2023-04-16T16:35:20.985Z,11.63
2023-04-16T16:37:47.784Z,11.48
2023-04-16T16:40:14.945Z,11.30
2023-04-16T16:42:41.714Z,11.13
2023-04-16T16:45:09.241Z,10.20
2023-04-16T16:47:36.089Z,10.63
2023-04-16T16:50:03.393Z,10.88
2023-04-16T16:52:30.614Z,11.02
2023-04-16T16:54:57.983Z,10.70
2023-04-16T16:57:25.011Z,10.88
2023-04-16T16:59:51.822Z,10.53
2023-04-16T17:02:19.085Z,10.70
2023-04-16T17:04:46.097Z,11.20
2023-04-16T17:07:19.078Z,11.50
2023-04-16T17:09:46.177Z,10.90
2023-04-16T17:12:13.016Z,10.83
2023-04-16T17:14:39.969Z,12.00
2023-04-16T17:17:06.906Z,11.13
2023-04-16T17:19:33.751Z,12.10
2023-04-16T17:22:00.706Z,12.00
2023-04-16T17:24:27.581Z,11.77
2023-04-16T17:26:54.325Z,12.40
2023-04-16T17:29:25.818Z,11.50
2023-04-16T17:31:53.780Z,11.90
2023-04-16T17:34:21.099Z,11.93
2023-04-16T17:36:48.113Z,12.10
2023-04-16T17:39:14.974Z,12.93
2023-04-16T17:41:41.872Z,12.05
2023-04-16T17:44:11.127Z,12.07
2023-04-16T17:46:38.649Z,12.02
2023-04-16T17:49:05.698Z,12.50
2023-04-16T17:51:32.623Z,12.75
2023-04-16T17:53:59.480Z,13.55
2023-04-16T17:56:26.295Z,14.35
2023-04-16T17:58:53.079Z,13.40
2023-04-16T18:01:19.834Z,13.40
2023-04-16T18:03:46.866Z,13.93
2023-04-16T18:06:13.849Z,14.13
2023-04-16T18:08:40.756Z,13.82
2023-04-16T18:11:10.547Z,13.50
2023-04-16T18:13:37.512Z,13.33
2023-04-16T18:16:04.496Z,13.45
2023-04-16T18:18:31.309Z,13.32
2023-04-16T18:20:58.240Z,12.93
2023-04-16T18:23:25.373Z,13.70
2023-04-16T18:25:52.293Z,13.27
2023-04-16T18:28:19.256Z,12.98
2023-04-16T18:30:46.186Z,12.85
2023-04-16T18:33:39.020Z,13.07
2023-04-16T18:36:02.209Z,12.98
2023-04-16T18:38:32.199Z,13.00
2023-04-16T18:40:59.106Z,13.60
2023-04-16T18:43:27.063Z,13.07
2023-04-16T18:45:53.923Z,13.15
2023-04-16T18:48:21.079Z,13.38
2023-04-16T18:50:47.967Z,13.60
2023-04-16T18:53:14.863Z,13.82
2023-04-16T18:55:41.665Z,13.68
2023-04-16T18:58:08.470Z,14.05
2023-04-16T19:00:35.432Z,13.25
2023-04-16T19:03:07.096Z,14.23
2023-04-16T19:05:34.288Z,14.48
2023-04-16T19:08:01.376Z,13.02
2023-04-16T19:10:28.275Z,14.10
2023-04-16T19:12:57.081Z,14.18
2023-04-16T19:15:23.956Z,14.20
2023-04-16T19:17:50.962Z,13.85
2023-04-16T19:20:17.932Z,14.05
2023-04-16T19:22:44.731Z,14.32
2023-04-16T19:25:11.638Z,14.13
2023-04-16T19:27:38.561Z,14.17
2023-04-16T19:30:06.703Z,14.68
2023-04-16T19:32:33.826Z,14.30
2023-04-16T19:35:00.635Z,14.73
2023-04-16T19:37:27.585Z,14.13
2023-04-16T19:39:54.946Z,14.47
2023-04-16T19:42:21.829Z,15.48
2023-04-16T19:44:48.669Z,14.65
2023-04-16T19:47:15.665Z,14.13
2023-04-16T19:49:43.745Z,14.55
2023-04-16T19:52:10.814Z,15.53
2023-04-16T19:54:37.791Z,14.77
2023-04-16T19:57:04.664Z,14.73
2023-04-16T19:59:32.275Z,15.50
2023-04-16T20:01:59.113Z,14.85
2023-04-16T20:04:26.172Z,15.00
2023-04-16T20:06:53.306Z,16.63
2023-04-16T20:09:20.201Z,15.60
2023-04-16T20:11:47.418Z,15.07
2023-04-16T20:14:14.265Z,17.30
2023-04-16T20:16:43.609Z,16.23
2023-04-16T20:19:10.983Z,16.15
2023-04-16T20:21:38.139Z,16.30
2023-04-16T20:24:05.170Z,15.90
2023-04-16T20:26:34.069Z,16.92
2023-04-16T20:29:01.093Z,16.10
2023-04-16T20:31:29.237Z,16.70
2023-04-16T20:33:56.199Z,15.90
2023-04-16T20:36:22.925Z,16.52
2023-04-16T20:38:51.506Z,17.58
2023-04-16T20:41:22.530Z,16.53
2023-04-16T20:43:50.253Z,16.83
2023-04-16T20:46:17.762Z,16.75
2023-04-16T20:48:44.775Z,17.13
2023-04-16T20:51:11.645Z,17.30
2023-04-16T20:53:38.481Z,17.17
2023-04-16T20:56:06.782Z,16.77
2023-04-16T20:58:33.761Z,17.30
2023-04-16T21:01:00.825Z,17.38
2023-04-16T21:03:27.800Z,17.20
2023-04-16T21:05:55.487Z,17.33
2023-04-16T21:08:22.988Z,17.83
2023-04-16T21:10:50.489Z,17.13
2023-04-16T21:13:17.538Z,17.83
2023-04-16T21:15:45.584Z,17.05
2023-04-16T21:18:12.789Z,16.90
2023-04-16T21:20:39.896Z,16.83
2023-04-16T21:23:07.048Z,17.42
2023-04-16T21:25:33.849Z,16.50
2023-04-16T21:28:00.717Z,18.05
2023-04-16T21:30:27.475Z,17.23
2023-04-16T21:32:54.871Z,16.35
2023-04-16T21:35:21.794Z,16.95
2023-04-16T21:37:48.575Z,17.42
2023-04-16T21:40:15.631Z,16.25
2023-04-16T21:42:42.577Z,16.80
2023-04-16T21:45:10.444Z,16.77
2023-04-16T21:47:37.941Z,17.20
2023-04-16T21:50:05.647Z,16.52
2023-04-16T21:52:32.965Z,17.15
2023-04-16T21:55:01.122Z,17.87
2023-04-16T21:57:27.883Z,18.15
2023-04-16T21:59:54.847Z,17.02
2023-04-16T22:02:21.755Z,17.25
2023-04-16T22:04:48.700Z,18.38
2023-04-16T22:07:16.857Z,16.83
2023-04-16T22:09:43.842Z,16.17
2023-04-16T22:12:10.669Z,16.27
2023-04-16T22:14:42.062Z,16.48
2023-04-16T22:17:14.905Z,16.73
2023-04-16T22:19:42.405Z,17.70
2023-04-16T22:22:09.178Z,15.73
2023-04-16T22:24:36.050Z,16.67
2023-04-16T22:27:03.083Z,16.85
2023-04-16T22:29:29.820Z,16.38
2023-04-16T22:31:56.776Z,16.57
2023-04-16T22:34:23.585Z,16.55
2023-04-16T22:36:50.659Z,15.52
2023-04-16T22:39:17.475Z,15.63
2023-04-16T22:41:44.212Z,14.85
2023-04-16T22:44:10.977Z,15.67
2023-04-16T22:46:37.788Z,15.90
2023-04-16T22:49:04.697Z,16.60
2023-04-16T22:51:31.556Z,15.60
2023-04-16T22:53:58.331Z,15.93
2023-04-16T22:56:28.758Z,15.33
2023-04-16T22:58:55.753Z,15.38
2023-04-16T23:01:23.367Z,14.52
2023-04-16T23:03:50.463Z,14.95
2023-04-16T23:06:17.455Z,15.93
2023-04-16T23:08:44.200Z,16.33
2023-04-16T23:11:11.260Z,15.63
2023-04-16T23:13:38.116Z,15.73
2023-04-16T23:16:05.366Z,16.42
2023-04-16T23:18:32.206Z,15.45
2023-04-16T23:20:59.051Z,16.90
2023-04-16T23:23:26.092Z,15.27
2023-04-16T23:25:53.927Z,16.73
2023-04-16T23:28:21.539Z,16.23
2023-04-16T23:30:52.233Z,16.08
2023-04-16T23:33:19.205Z,16.37
2023-04-16T23:35:47.447Z,16.42
2023-04-16T23:38:14.319Z,16.60
2023-04-16T23:40:41.187Z,16.33
2023-04-16T23:43:08.148Z,16.98
2023-04-16T23:45:35.021Z,15.70
2023-04-16T23:48:02.036Z,16.50
2023-04-16T23:50:28.925Z,15.98
2023-04-16T23:52:55.919Z,16.13
2023-04-16T23:55:22.842Z,16.70
2023-04-16T23:57:49.826Z,16.23
